Time;durP1;ratioP1;P1;durP2;ratioP2;P2;SDS_P1;SDS_P2;PMS_P1;PMS_P2;Temp;Humidity;BMP_temperature;BMP_pressure;BME280_temperature;BME280_humidity;BME280_pressure;Samples;Min_cycle;Max_cycle;Signal;HPM_P1;HPM_P2
2022/07/29 00:00:56;;;;;;;4.82;1.70;;;20.50;77.00;;;;;;5056828;28;20036;-71
2022/07/29 00:03:22;;;;;;;4.70;1.77;;;20.50;77.00;;;;;;5074718;28;20039;-71
2022/07/29 00:05:48;;;;;;;5.05;1.70;;;20.40;76.80;;;;;;5056608;28;20036;-70
2022/07/29 00:08:15;;;;;;;4.75;1.60;;;20.50;76.90;;;;;;5074729;28;20025;-70
2022/07/29 00:10:41;;;;;;;11.27;1.98;;;20.40;77.00;;;;;;5074227;28;20035;-71
2022/07/29 00:13:08;;;;;;;3.65;1.60;;;20.40;77.00;;;;;;5056595;28;20032;-72
2022/07/29 00:15:34;;;;;;;4.55;1.45;;;20.40;77.00;;;;;;5074548;28;20036;-71
2022/07/29 00:17:59;;;;;;;5.65;1.60;;;20.40;77.00;;;;;;5074320;28;20403;-71
2022/07/29 00:20:25;;;;;;;5.45;1.45;;;20.40;77.00;;;;;;5056301;28;20142;-71
2022/07/29 00:22:51;;;;;;;5.00;1.40;;;20.40;77.00;;;;;;5074200;28;20037;-72
2022/07/29 00:25:17;;;;;;;2.40;1.05;;;20.40;77.10;;;;;;5057986;22;20106;-69
2022/07/29 00:27:45;;;;;;;3.47;1.50;;;20.40;77.00;;;;;;5054138;28;20400;-69
2022/07/29 00:30:11;;;;;;;3.95;1.30;;;20.40;77.00;;;;;;5054430;28;20465;-69
2022/07/29 00:32:37;;;;;;;2.92;1.30;;;20.30;77.00;;;;;;5054106;28;20021;-69
2022/07/29 00:38:16;;;;;;;3.03;1.48;;;20.40;77.00;;;;;;5011723;28;20026;-69
2022/07/29 00:40:43;;;;;;;4.18;1.42;;;20.40;76.90;;;;;;5011599;28;20029;-72
2022/07/29 00:43:10;;;;;;;4.82;1.80;;;20.30;77.00;;;;;;5025971;28;20408;-70
2022/07/29 00:45:36;;;;;;;3.85;1.05;;;20.30;77.00;;;;;;5036019;28;20029;-70
2022/07/29 00:48:04;;;;;;;4.72;1.38;;;20.30;77.10;;;;;;5053878;28;20108;-70
2022/07/29 00:50:31;;;;;;;3.97;1.20;;;20.30;77.20;;;;;;5053536;28;20040;-70
2022/07/29 00:52:58;;;;;;;4.15;1.60;;;20.30;77.30;;;;;;5053575;28;20036;-69
2022/07/29 00:55:24;;;;;;;5.55;2.30;;;20.30;77.20;;;;;;5053746;28;20078;-70
2022/07/29 00:57:52;;;;;;;5.10;1.80;;;20.20;77.20;;;;;;5053692;28;20104;-70
2022/07/29 01:00:22;;;;;;;5.88;1.58;;;20.20;77.20;;;;;;5052401;28;20363;-70
2022/07/29 01:02:48;;;;;;;4.18;1.55;;;20.20;77.40;;;;;;5053436;28;20032;-69
2022/07/29 01:05:17;;;;;;;4.03;1.70;;;20.20;77.40;;;;;;5053637;28;20040;-69
2022/07/29 01:07:45;;;;;;;5.13;1.58;;;20.20;77.30;;;;;;5053802;28;20025;-70
2022/07/29 01:10:13;;;;;;;4.20;1.55;;;20.20;77.30;;;;;;5053429;28;20048;-70
2022/07/29 01:12:40;;;;;;;4.70;1.27;;;20.20;77.20;;;;;;5053499;28;20401;-70
2022/07/29 01:15:08;;;;;;;3.78;1.25;;;20.10;77.10;;;;;;5053502;28;20313;-70
2022/07/29 01:17:34;;;;;;;4.22;1.45;;;20.10;77.30;;;;;;5053255;28;20079;-70
2022/07/29 01:20:06;;;;;;;2.80;1.35;;;20.10;77.40;;;;;;5052918;28;20075;-70
2022/07/29 01:22:34;;;;;;;3.55;1.20;;;20.10;77.40;;;;;;5053272;28;20386;-70
2022/07/29 01:25:24;;;;;;;4.07;1.40;;;20.10;77.60;;;;;;5053026;28;20036;-70
2022/07/29 01:28:05;;;;;;;5.78;1.67;;;20.10;77.50;;;;;;5053072;28;20078;-70
2022/07/29 01:30:34;;;;;;;4.43;1.50;;;20.10;77.40;;;;;;5052694;28;20032;-70
2022/07/29 01:33:05;;;;;;;5.22;1.40;;;20.10;77.60;;;;;;5035095;28;20029;-69
2022/07/29 01:35:42;;;;;;;4.65;1.33;;;20.10;77.70;;;;;;5053258;28;20029;-69
2022/07/29 01:38:19;;;;;;;4.68;1.73;;;20.10;77.80;;;;;;5052871;28;20033;-69
2022/07/29 01:40:51;;;;;;;4.40;1.73;;;20.10;77.70;;;;;;5052796;28;20032;-70
2022/07/29 01:43:23;;;;;;;4.40;1.63;;;20.00;77.80;;;;;;5053200;28;20029;-69
2022/07/29 01:46:14;;;;;;;7.65;1.50;;;20.10;78.00;;;;;;5052824;28;20125;-70
2022/07/29 01:48:53;;;;;;;4.82;1.48;;;20.00;77.80;;;;;;5052900;28;20493;-69
2022/07/29 01:51:21;;;;;;;4.88;1.63;;;20.00;77.90;;;;;;5053064;28;20035;-70
2022/07/29 01:54:16;;;;;;;2.75;1.13;;;20.00;78.10;;;;;;5053144;28;20025;-69
2022/07/29 01:56:44;;;;;;;4.05;1.85;;;20.00;78.10;;;;;;5052860;28;20128;-70
2022/07/29 01:59:11;;;;;;;6.00;1.20;;;20.00;78.10;;;;;;5018082;28;20429;-69
2022/07/29 02:01:39;;;;;;;5.53;1.40;;;20.00;78.30;;;;;;5034991;28;20036;-69
2022/07/29 02:04:09;;;;;;;6.07;1.50;;;19.90;78.40;;;;;;5052563;28;20075;-69
2022/07/29 02:06:38;;;;;;;5.07;1.73;;;19.90;78.40;;;;;;5052266;28;20029;-70
2022/07/29 02:09:06;;;;;;;4.65;1.60;;;20.00;78.50;;;;;;5052199;28;20021;-70
2022/07/29 02:11:34;;;;;;;3.10;1.20;;;19.90;78.40;;;;;;5052551;28;20083;-70
2022/07/29 02:14:01;;;;;;;4.20;1.60;;;20.00;78.40;;;;;;5052287;28;20021;-70
2022/07/29 02:16:30;;;;;;;2.97;1.15;;;19.90;78.30;;;;;;5052040;28;20037;-70
2022/07/29 02:18:57;;;;;;;5.45;1.40;;;19.90;78.50;;;;;;5052225;28;20418;-69
2022/07/29 02:21:25;;;;;;;5.25;1.60;;;19.90;78.70;;;;;;5052184;28;20028;-70
2022/07/29 02:23:52;;;;;;;4.93;1.30;;;19.90;78.60;;;;;;5051865;28;20070;-70
2022/07/29 02:26:22;;;;;;;2.80;1.10;;;19.90;78.60;;;;;;5051985;28;20477;-70
2022/07/29 02:28:54;;;;;;;3.63;1.30;;;19.90;78.70;;;;;;5051658;28;20412;-70
2022/07/29 02:31:25;;;;;;;3.65;1.33;;;19.80;78.70;;;;;;5052056;28;20028;-70
2022/07/29 02:33:53;;;;;;;6.25;1.40;;;19.80;78.70;;;;;;5052094;28;20033;-69
2022/07/29 02:36:22;;;;;;;5.95;1.60;;;19.80;79.50;;;;;;5051898;28;20025;-70
2022/07/29 02:38:53;;;;;;;3.65;1.25;;;19.80;78.60;;;;;;5051912;28;20029;-70
2022/07/29 02:41:33;;;;;;;4.70;1.58;;;19.80;78.60;;;;;;5052211;28;20086;-70
2022/07/29 02:44:22;;;;;;;5.68;1.40;;;19.80;78.60;;;;;;5051586;28;20029;-70
2022/07/29 02:47:00;;;;;;;6.60;1.80;;;19.80;78.60;;;;;;5051028;28;20045;-69
2022/07/29 02:49:36;;;;;;;5.40;1.67;;;19.80;78.70;;;;;;5051522;28;20055;-70
2022/07/29 02:52:27;;;;;;;4.60;1.40;;;19.80;78.80;;;;;;5033698;28;20029;-69
2022/07/29 02:55:05;;;;;;;3.42;1.35;;;19.80;78.60;;;;;;5051577;28;20029;-70
2022/07/29 02:57:40;;;;;;;6.30;1.40;;;19.80;79.10;;;;;;5051483;28;20040;-70
2022/07/29 03:00:09;;;;;;;5.90;1.77;;;19.80;80.10;;;;;;5033389;28;20367;-69
2022/07/29 03:02:43;;;;;;;6.07;1.60;;;19.80;80.70;;;;;;5033716;28;20128;-70
2022/07/29 03:05:15;;;;;;;4.05;1.40;;;19.70;81.30;;;;;;5051302;28;20071;-69
2022/07/29 03:07:45;;;;;;;4.43;1.80;;;19.70;81.70;;;;;;5051184;28;20052;-70
2022/07/29 03:10:12;;;;;;;4.00;1.30;;;19.70;82.00;;;;;;5051084;28;20592;-69
2022/07/29 03:12:39;;;;;;;4.15;1.50;;;19.60;82.40;;;;;;5051126;28;20402;-69
2022/07/29 03:15:06;;;;;;;7.15;1.80;;;19.60;82.40;;;;;;5051089;28;20086;-69
2022/07/29 03:17:33;;;;;;;7.70;2.20;;;19.60;82.20;;;;;;5051001;28;20025;-69
2022/07/29 03:20:00;;;;;;;6.97;2.05;;;19.50;82.20;;;;;;5050814;28;20025;-70
2022/07/29 03:22:26;;;;;;;11.00;2.28;;;19.50;82.20;;;;;;5033156;28;20082;-70
2022/07/29 03:24:52;;;;;;;6.65;1.80;;;19.50;82.40;;;;;;5050401;28;20032;-69
2022/07/29 03:27:18;;;;;;;7.45;1.80;;;19.40;82.70;;;;;;5050892;28;20547;-70
2022/07/29 03:29:44;;;;;;;7.03;1.80;;;19.40;82.80;;;;;;5050687;28;20079;-69
2022/07/29 03:32:10;;;;;;;5.63;1.65;;;19.40;82.90;;;;;;5033173;28;20036;-69
2022/07/29 03:34:37;;;;;;;8.23;1.95;;;19.30;83.00;;;;;;5050910;28;20117;-69
2022/07/29 03:37:05;;;;;;;7.88;2.03;;;19.30;83.50;;;;;;5050651;28;20090;-69
2022/07/29 03:39:36;;;;;;;6.88;1.70;;;19.30;83.70;;;;;;5050673;28;20029;-70
2022/07/29 03:42:04;;;;;;;6.78;1.45;;;19.30;84.00;;;;;;5050699;28;20032;-69
2022/07/29 03:44:31;;;;;;;6.88;1.95;;;19.30;84.20;;;;;;5050776;28;20029;-69
2022/07/29 03:47:01;;;;;;;5.50;1.60;;;19.20;84.30;;;;;;5050628;28;20036;-69
2022/07/29 03:49:29;;;;;;;5.50;1.45;;;19.20;84.50;;;;;;5050587;28;20035;-70
2022/07/29 03:51:55;;;;;;;5.03;1.40;;;19.30;84.70;;;;;;5050702;28;20029;-70
2022/07/29 03:54:22;;;;;;;5.60;1.30;;;19.20;85.00;;;;;;5032897;28;20078;-70
2022/07/29 03:56:50;;;;;;;7.03;1.70;;;19.20;84.90;;;;;;5050675;28;20441;-70
2022/07/29 03:59:19;;;;;;;3.33;1.23;;;19.20;84.90;;;;;;5050684;28;20375;-69
2022/07/29 04:01:46;;;;;;;3.88;1.20;;;19.20;85.10;;;;;;5050696;28;20059;-70
2022/07/29 04:04:12;;;;;;;8.95;3.00;;;19.10;85.30;;;;;;5050572;28;20489;-69
2022/07/29 04:06:42;;;;;;;10.25;3.10;;;19.20;85.70;;;;;;5050469;28;20036;-70
2022/07/29 04:09:09;;;;;;;6.43;2.00;;;19.10;87.10;;;;;;5032674;28;20025;-69
2022/07/29 04:11:36;;;;;;;5.90;2.20;;;19.10;88.60;;;;;;5050656;28;20170;-70
2022/07/29 04:14:02;;;;;;;7.10;1.80;;;19.10;90.70;;;;;;5050660;28;20508;-69
2022/07/29 04:16:28;;;;;;;6.32;2.75;;;19.00;90.50;;;;;;5050530;28;20029;-70
2022/07/29 04:18:54;;;;;;;7.25;2.30;;;18.90;91.00;;;;;;5050451;28;20029;-70
2022/07/29 04:21:20;;;;;;;9.90;2.72;;;18.80;91.60;;;;;;5050449;28;20111;-69
2022/07/29 04:23:49;;;;;;;5.35;2.05;;;18.80;91.60;;;;;;5050532;28;20032;-69
2022/07/29 04:26:18;;;;;;;9.65;2.65;;;18.70;91.50;;;;;;5050347;28;20044;-69
2022/07/29 04:28:44;;;;;;;5.43;2.17;;;18.70;91.60;;;;;;5050230;28;20036;-70
2022/07/29 04:31:11;;;;;;;4.43;2.08;;;18.60;92.10;;;;;;5050471;28;20061;-69
2022/07/29 04:33:38;;;;;;;4.78;2.08;;;18.60;92.60;;;;;;5050415;28;20086;-69
2022/07/29 04:36:04;;;;;;;5.43;2.65;;;18.60;93.20;;;;;;5052966;28;20028;-69
2022/07/29 04:38:30;;;;;;;8.57;2.92;;;18.60;93.30;;;;;;5053706;28;20033;-69
2022/07/29 04:40:56;;;;;;;12.13;3.30;;;18.60;93.60;;;;;;5054059;28;20577;-69
2022/07/29 04:43:22;;;;;;;8.00;2.60;;;18.60;92.70;;;;;;5053912;28;20120;-69
2022/07/29 04:45:48;;;;;;;7.28;2.75;;;18.60;92.80;;;;;;5053971;28;20017;-69
2022/07/29 04:48:14;;;;;;;6.72;2.30;;;18.60;93.20;;;;;;5036095;28;20025;-69
2022/07/29 04:50:44;;;;;;;6.65;2.05;;;18.60;93.00;;;;;;5053727;28;20025;-70
2022/07/29 04:53:10;;;;;;;5.88;2.58;;;18.50;93.00;;;;;;5036091;28;20033;-70
2022/07/29 04:55:36;;;;;;;5.47;2.35;;;18.50;93.20;;;;;;5054088;28;20064;-70
2022/07/29 04:58:02;;;;;;;6.88;2.38;;;18.50;93.00;;;;;;5053767;28;20037;-69
2022/07/29 05:00:28;;;;;;;5.88;2.50;;;18.50;93.00;;;;;;5035659;28;20060;-69
2022/07/29 05:02:54;;;;;;;6.38;2.20;;;18.50;92.60;;;;;;5035739;28;20041;-70
2022/07/29 05:05:19;;;;;;;4.05;1.60;;;18.50;92.70;;;;;;5053566;28;20032;-69
2022/07/29 05:07:45;;;;;;;10.68;2.17;;;18.40;92.60;;;;;;5053489;28;20029;-70
2022/07/29 05:10:11;;;;;;;5.63;1.83;;;18.40;93.20;;;;;;5053361;28;20275;-69
2022/07/29 05:12:37;;;;;;;5.00;1.95;;;18.30;93.90;;;;;;5053533;28;20025;-69
2022/07/29 05:15:03;;;;;;;3.35;1.70;;;18.30;94.20;;;;;;5053579;28;20308;-70
2022/07/29 05:17:29;;;;;;;5.85;1.75;;;18.30;94.30;;;;;;5053242;28;20546;-70
2022/07/29 05:19:55;;;;;;;4.43;1.88;;;18.30;94.40;;;;;;5053362;28;20104;-70
2022/07/29 05:22:21;;;;;;;6.78;1.83;;;18.30;94.70;;;;;;5053262;28;20033;-69
2022/07/29 05:24:47;;;;;;;4.53;2.22;;;18.30;95.00;;;;;;5035307;28;20033;-70
2022/07/29 05:27:13;;;;;;;5.13;1.90;;;18.30;95.40;;;;;;5053122;28;20028;-69
2022/07/29 05:29:39;;;;;;;5.22;2.17;;;18.30;95.90;;;;;;5053028;28;20424;-69
2022/07/29 05:32:06;;;;;;;4.85;1.80;;;18.20;96.10;;;;;;5035122;28;20029;-70
2022/07/29 05:34:32;;;;;;;6.78;2.30;;;18.20;96.00;;;;;;5053079;28;20561;-69
2022/07/29 05:36:58;;;;;;;10.93;2.15;;;18.20;95.80;;;;;;5052939;28;20100;-70
2022/07/29 05:39:24;;;;;;;7.38;2.45;;;18.30;95.70;;;;;;5034930;28;20032;-69
2022/07/29 05:41:50;;;;;;;7.25;2.47;;;18.30;95.60;;;;;;5053119;28;20108;-70
2022/07/29 05:44:17;;;;;;;7.68;3.63;;;18.40;95.50;;;;;;5053018;28;20573;-70
2022/07/29 05:46:43;;;;;;;7.57;1.95;;;18.30;95.00;;;;;;5052268;28;20021;-69
2022/07/29 05:49:09;;;;;;;5.88;2.33;;;18.30;94.80;;;;;;5034758;28;20135;-69
2022/07/29 05:51:35;;;;;;;5.90;2.70;;;18.30;94.50;;;;;;5052890;28;20025;-70
2022/07/29 05:54:01;;;;;;;4.95;1.83;;;18.20;94.40;;;;;;5052882;28;20028;-69
2022/07/29 05:56:28;;;;;;;5.32;2.50;;;18.20;94.20;;;;;;5052567;28;20105;-69
2022/07/29 05:58:54;;;;;;;6.50;2.00;;;18.20;94.50;;;;;;5052386;28;20056;-69
2022/07/29 06:01:20;;;;;;;9.20;2.35;;;18.20;94.90;;;;;;5052517;28;20033;-69
2022/07/29 06:03:46;;;;;;;5.75;1.83;;;18.20;95.00;;;;;;5052747;28;20028;-69
2022/07/29 06:06:12;;;;;;;4.82;2.30;;;18.20;95.30;;;;;;5034737;28;20550;-69
2022/07/29 06:08:38;;;;;;;3.85;2.08;;;18.10;95.60;;;;;;5052465;28;20033;-69
2022/07/29 06:11:05;;;;;;;5.45;2.35;;;18.20;95.90;;;;;;5052391;28;20029;-69
2022/07/29 06:13:31;;;;;;;6.13;1.90;;;18.20;96.10;;;;;;5052551;28;20464;-69
2022/07/29 06:15:57;;;;;;;7.45;2.30;;;18.20;96.10;;;;;;5052536;28;20409;-70
2022/07/29 06:18:24;;;;;;;5.10;2.30;;;18.20;96.30;;;;;;5052667;28;20037;-69
2022/07/29 06:20:50;;;;;;;6.50;2.50;;;18.30;96.30;;;;;;5052211;28;20056;-70
2022/07/29 06:23:17;;;;;;;5.88;2.30;;;18.30;95.10;;;;;;5052325;28;20218;-69
2022/07/29 06:25:43;;;;;;;7.03;3.10;;;18.30;95.40;;;;;;5066485;22;20055;-67
2022/07/29 06:28:09;;;;;;;5.20;2.20;;;18.30;95.10;;;;;;5052709;28;20430;-67
2022/07/29 06:30:35;;;;;;;8.70;2.25;;;18.30;95.10;;;;;;5051813;28;20489;-66
2022/07/29 06:33:01;;;;;;;7.15;2.22;;;18.30;95.30;;;;;;5052155;28;20063;-68
2022/07/29 06:35:28;;;;;;;7.07;2.13;;;18.30;95.80;;;;;;5052180;28;20029;-65
2022/07/29 06:37:54;;;;;;;6.85;2.40;;;18.40;96.40;;;;;;5052101;28;20024;-65
2022/07/29 06:43:04;;;;;;;6.80;2.30;;;18.50;96.40;;;;;;5051814;28;20041;-65
2022/07/29 06:45:34;;;;;;;6.95;2.80;;;18.50;96.40;;;;;;5052160;28;20112;-65
2022/07/29 06:48:00;;;;;;;6.05;2.13;;;18.50;96.30;;;;;;5051937;28;20029;-65
2022/07/29 06:50:26;;;;;;;7.60;2.25;;;18.50;96.20;;;;;;5051565;28;20027;-65
2022/07/29 06:52:52;;;;;;;5.63;2.30;;;18.50;96.00;;;;;;5051859;28;20029;-65
2022/07/29 06:55:19;;;;;;;31.98;5.47;;;18.50;96.00;;;;;;5051865;28;20389;-65
2022/07/29 06:57:46;;;;;;;7.78;2.85;;;18.60;96.00;;;;;;5051315;28;20031;-65
2022/07/29 07:00:13;;;;;;;8.18;3.10;;;18.50;96.10;;;;;;5050952;28;20516;-65
2022/07/29 07:02:39;;;;;;;9.80;3.15;;;18.60;96.30;;;;;;5051241;28;20166;-66
2022/07/29 07:05:05;;;;;;;11.40;3.70;;;18.60;96.10;;;;;;5051586;28;20112;-65
2022/07/29 07:07:31;;;;;;;8.13;3.05;;;18.60;96.30;;;;;;5051607;28;20377;-65
2022/07/29 07:09:57;;;;;;;10.98;3.50;;;18.60;96.40;;;;;;5051130;28;20025;-65
2022/07/29 07:12:23;;;;;;;7.43;2.78;;;18.50;96.50;;;;;;5051634;28;20032;-64
2022/07/29 07:14:49;;;;;;;8.88;2.78;;;18.50;96.60;;;;;;5051461;28;20037;-68
2022/07/29 07:17:15;;;;;;;8.30;3.00;;;18.50;96.70;;;;;;5051259;28;20399;-67
2022/07/29 07:19:41;;;;;;;9.18;3.13;;;18.50;96.40;;;;;;5051201;28;20025;-67
2022/07/29 07:22:07;;;;;;;6.45;3.70;;;18.50;96.40;;;;;;5051318;28;20025;-67
2022/07/29 07:24:34;;;;;;;8.90;3.88;;;18.50;96.40;;;;;;5033231;28;20045;-68
2022/07/29 07:27:01;;;;;;;6.13;3.40;;;18.50;96.10;;;;;;5051133;28;20021;-68
2022/07/29 07:29:27;;;;;;;8.98;2.97;;;18.50;96.10;;;;;;5051100;28;20025;-68
2022/07/29 07:31:54;;;;;;;7.25;3.20;;;18.50;96.10;;;;;;5051242;28;20017;-67
2022/07/29 07:34:20;;;;;;;6.75;2.60;;;18.50;96.20;;;;;;5051223;28;20025;-66
2022/07/29 07:36:45;;;;;;;6.53;2.40;;;18.50;96.10;;;;;;5051123;28;20025;-68
2022/07/29 07:39:11;;;;;;;6.65;2.88;;;18.50;95.80;;;;;;5050796;28;20029;-66
2022/07/29 07:41:37;;;;;;;6.88;3.28;;;18.60;95.80;;;;;;5051197;28;20040;-68
2022/07/29 07:44:04;;;;;;;5.53;2.33;;;18.60;95.80;;;;;;5050902;28;20029;-67
2022/07/29 07:46:30;;;;;;;7.50;2.95;;;18.60;95.80;;;;;;5051117;28;20430;-68
2022/07/29 07:48:55;;;;;;;6.85;3.30;;;18.60;95.80;;;;;;5050926;28;20111;-68
2022/07/29 07:51:21;;;;;;;6.82;3.13;;;18.60;95.70;;;;;;5050841;28;20386;-67
2022/07/29 07:53:50;;;;;;;5.28;2.38;;;18.50;95.70;;;;;;5051420;28;20115;-67
2022/07/29 07:56:16;;;;;;;9.02;3.00;;;18.60;95.50;;;;;;5050867;28;20108;-67
2022/07/29 07:58:42;;;;;;;11.05;3.55;;;18.60;95.70;;;;;;5050609;28;20466;-67
2022/07/29 08:01:09;;;;;;;8.10;3.00;;;18.60;96.10;;;;;;5051180;28;20028;-67
2022/07/29 08:03:35;;;;;;;7.45;3.42;;;18.60;96.10;;;;;;5050783;28;20116;-68
2022/07/29 08:06:02;;;;;;;7.68;3.00;;;18.60;96.10;;;;;;5050824;28;20021;-67
2022/07/29 08:08:28;;;;;;;7.97;3.15;;;18.60;96.60;;;;;;5050610;28;20711;-68
2022/07/29 08:10:58;;;;;;;7.30;3.22;;;18.60;96.80;;;;;;5053398;28;20032;-68
2022/07/29 08:13:30;;;;;;;7.15;3.20;;;18.60;97.10;;;;;;5054706;28;20035;-67
2022/07/29 08:15:57;;;;;;;7.80;3.10;;;18.60;97.50;;;;;;5054665;28;20028;-67
2022/07/29 08:18:24;;;;;;;6.57;3.15;;;18.50;98.00;;;;;;5054716;28;20028;-67
2022/07/29 08:20:50;;;;;;;6.60;3.58;;;18.50;98.00;;;;;;5054457;28;20098;-67
2022/07/29 08:23:18;;;;;;;8.90;3.53;;;18.50;98.10;;;;;;5054504;28;20025;-68
2022/07/29 08:25:44;;;;;;;7.72;3.50;;;18.50;98.10;;;;;;5054673;28;20056;-66
2022/07/29 08:28:10;;;;;;;11.93;4.70;;;18.50;97.60;;;;;;5054661;28;20446;-67
2022/07/29 08:30:36;;;;;;;10.70;3.78;;;18.50;97.40;;;;;;5054507;28;20024;-67
2022/07/29 08:33:02;;;;;;;6.40;3.60;;;18.60;97.80;;;;;;5054551;28;20025;-67
2022/07/29 08:35:28;;;;;;;8.57;3.95;;;18.60;98.20;;;;;;5054523;28;20234;-66
2022/07/29 08:37:56;;;;;;;11.07;3.95;;;18.60;98.20;;;;;;5036491;28;20037;-67
2022/07/29 08:40:23;;;;;;;8.07;3.53;;;18.60;98.20;;;;;;5054183;28;20037;-67
2022/07/29 08:42:51;;;;;;;9.32;3.42;;;18.60;98.40;;;;;;5054316;28;20068;-66
2022/07/29 08:45:17;;;;;;;8.85;3.70;;;18.70;98.40;;;;;;5054282;28;20025;-66
2022/07/29 08:47:45;;;;;;;10.65;3.78;;;18.70;98.50;;;;;;5054236;28;20021;-66
2022/07/29 08:50:11;;;;;;;10.87;3.80;;;18.70;98.10;;;;;;5053812;28;20025;-66
2022/07/29 08:52:40;;;;;;;12.45;3.92;;;18.80;98.30;;;;;;5054122;28;20386;-67
2022/07/29 08:55:09;;;;;;;8.25;3.80;;;18.90;98.40;;;;;;5054150;28;20028;-67
2022/07/29 08:57:36;;;;;;;11.43;4.07;;;19.00;98.40;;;;;;5053999;28;20025;-66
2022/07/29 09:00:05;;;;;;;6.80;3.72;;;19.00;98.10;;;;;;5053882;28;20058;-65
2022/07/29 09:02:39;;;;;;;9.07;4.45;;;19.10;98.10;;;;;;5053768;28;20025;-67
2022/07/29 09:05:05;;;;;;;9.07;4.50;;;19.20;98.50;;;;;;5053926;28;20021;-66
2022/07/29 09:07:32;;;;;;;14.88;4.53;;;19.20;98.20;;;;;;5053895;28;20025;-66
2022/07/29 09:09:59;;;;;;;8.80;3.58;;;19.30;98.00;;;;;;5053701;28;20128;-66
2022/07/29 09:12:25;;;;;;;11.93;4.45;;;19.30;98.00;;;;;;5035910;28;20029;-67
2022/07/29 09:14:51;;;;;;;10.35;4.53;;;19.30;98.10;;;;;;5053746;28;20413;-67
2022/07/29 09:17:19;;;;;;;10.50;4.60;;;19.30;98.30;;;;;;5053683;28;20036;-66
2022/07/29 09:19:45;;;;;;;9.82;4.80;;;19.30;98.30;;;;;;5035500;28;20041;-65
2022/07/29 09:22:11;;;;;;;11.40;4.85;;;19.30;98.10;;;;;;5052711;28;20098;-66
2022/07/29 09:24:47;;;;;;;14.07;4.90;;;19.20;98.10;;;;;;5053311;28;20043;-66
2022/07/29 09:27:20;;;;;;;6.78;3.58;;;19.20;98.30;;;;;;5053321;28;20032;-67
2022/07/29 09:29:55;;;;;;;13.18;4.80;;;19.20;98.30;;;;;;5053284;28;20079;-67
2022/07/29 09:32:21;;;;;;;11.75;4.57;;;19.20;98.50;;;;;;5053390;28;20573;-67
2022/07/29 09:34:47;;;;;;;9.98;4.60;;;19.20;98.60;;;;;;5053170;28;20116;-65
2022/07/29 09:37:26;;;;;;;9.98;4.32;;;19.20;98.70;;;;;;5053302;28;20033;-66
2022/07/29 09:39:53;;;;;;;10.93;4.93;;;19.20;98.90;;;;;;5053435;28;20461;-66
2022/07/29 09:42:29;;;;;;;9.73;4.72;;;19.20;98.10;;;;;;5052925;28;20040;-66
2022/07/29 09:44:55;;;;;;;8.90;4.53;;;19.20;98.50;;;;;;5053280;28;20032;-66
2022/07/29 09:47:25;;;;;;;9.18;4.03;;;19.20;98.60;;;;;;5052990;28;20025;-67
2022/07/29 09:50:00;;;;;;;9.20;4.57;;;19.20;98.90;;;;;;5053264;28;20047;-66
2022/07/29 09:52:27;;;;;;;7.95;3.90;;;19.20;98.80;;;;;;5052994;28;20036;-66
2022/07/29 09:55:03;;;;;;;13.00;4.85;;;19.20;99.00;;;;;;5052918;28;20095;-66
2022/07/29 09:57:29;;;;;;;8.48;4.10;;;19.30;99.10;;;;;;5052863;28;20029;-65
2022/07/29 10:00:09;;;;;;;10.60;5.10;;;19.30;99.20;;;;;;5052746;28;20037;-66
2022/07/29 10:02:41;;;;;;;9.77;4.43;;;19.30;99.30;;;;;;5053547;28;20477;-66
2022/07/29 10:05:30;;;;;;;;;;;19.30;98.90;;;;;;5053205;28;20056;-65
2022/07/29 10:07:57;;;;;;;10.68;4.93;;;19.30;99.10;;;;;;5052712;28;19913;-66
2022/07/29 10:10:28;;;;;;;11.90;5.60;;;19.20;98.60;;;;;;5034900;28;20036;-66
2022/07/29 10:12:55;;;;;;;10.40;4.97;;;19.20;98.90;;;;;;5052517;28;20029;-66
2022/07/29 10:15:27;;;;;;;9.40;5.13;;;19.20;98.80;;;;;;5052949;28;20103;-67
2022/07/29 10:17:55;;;;;;;8.35;4.75;;;19.20;98.90;;;;;;5052372;28;20043;-67
2022/07/29 10:20:21;;;;;;;8.98;4.78;;;19.20;99.20;;;;;;5052165;28;20100;-66
2022/07/29 10:22:49;;;;;;;8.85;4.38;;;19.20;98.80;;;;;;5052385;28;20382;-66
2022/07/29 10:25:17;;;;;;;11.15;4.82;;;19.30;98.70;;;;;;5052432;28;20107;-67
2022/07/29 10:27:44;;;;;;;9.85;4.20;;;19.40;98.00;;;;;;5017682;28;20074;-66
2022/07/29 10:30:13;;;;;;;7.13;4.50;;;19.40;97.80;;;;;;5052003;28;20025;-66
2022/07/29 10:33:14;;;;;;;10.90;4.65;;;19.50;97.40;;;;;;5052172;28;20032;-67
2022/07/29 10:36:15;;;;;;;10.98;4.18;;;19.60;97.60;;;;;;5052086;28;20032;-66
2022/07/29 10:38:44;;;;;;;13.10;4.57;;;19.70;95.70;;;;;;5051884;28;20037;-65
2022/07/29 10:41:37;;;;;;;7.93;3.50;;;19.80;95.00;;;;;;5052365;28;20420;-67
2022/07/29 10:44:08;;;;;;;10.73;4.18;;;19.90;95.00;;;;;;5051977;28;20036;-66
2022/07/29 10:46:36;;;;;;;14.05;4.10;;;20.00;95.10;;;;;;5052141;28;20416;-67
2022/07/29 10:49:15;;;;;;;9.40;3.65;;;20.10;93.80;;;;;;5051644;28;20029;-66
2022/07/29 10:51:51;;;;;;;9.15;4.32;;;20.10;93.90;;;;;;5051643;28;20131;-66
2022/07/29 10:54:38;;;;;;;8.63;3.85;;;20.20;94.40;;;;;;5051775;28;20036;-65
2022/07/29 10:57:31;;;;;;;8.15;4.50;;;20.20;94.10;;;;;;5051531;28;20024;-67
2022/07/29 11:00:14;;;;;;;8.65;4.13;;;20.30;94.20;;;;;;5049276;28;20494;-66
2022/07/29 11:02:40;;;;;;;6.93;3.53;;;20.40;93.40;;;;;;5051639;28;20095;-67
2022/07/29 11:05:08;;;;;;;11.70;4.30;;;20.40;93.10;;;;;;5051752;28;20473;-68
2022/07/29 11:07:36;;;;;;;9.65;4.13;;;20.50;93.70;;;;;;5051539;28;20032;-66
2022/07/29 11:10:17;;;;;;;12.67;4.70;;;20.60;93.70;;;;;;5051391;28;20072;-66
2022/07/29 11:12:43;;;;;;;11.02;4.60;;;20.70;93.30;;;;;;5051534;28;20108;-66
2022/07/29 11:15:18;;;;;;;13.20;3.92;;;20.80;93.20;;;;;;5051431;28;20135;-66
2022/07/29 11:17:53;;;;;;;7.57;3.42;;;20.80;92.40;;;;;;5051411;28;20059;-66
2022/07/29 11:20:41;;;;;;;11.80;3.65;;;20.80;91.80;;;;;;5051242;28;20024;-66
2022/07/29 11:23:39;;;;;;;7.93;3.63;;;20.80;92.20;;;;;;5051410;28;20104;-66
2022/07/29 11:26:14;;;;;;;12.52;3.70;;;20.90;91.40;;;;;;5035242;28;20041;-67
2022/07/29 11:29:03;;;;;;;8.13;2.75;;;21.00;90.80;;;;;;5050904;28;20109;-67
2022/07/29 11:31:41;;;;;;;8.93;2.65;;;21.00;90.50;;;;;;5051307;28;20044;-66
2022/07/29 11:34:35;;;;;;;9.10;2.65;;;21.10;90.30;;;;;;5051425;28;20389;-67
2022/07/29 11:37:16;;;;;;;9.68;2.50;;;21.10;90.40;;;;;;5051128;28;20102;-67
2022/07/29 11:40:09;;;;;;;5.55;2.13;;;21.20;89.50;;;;;;5051008;28;20116;-66
2022/07/29 11:42:35;;;;;;;8.40;2.45;;;21.30;88.30;;;;;;5051106;28;20037;-67
2022/07/29 11:45:05;;;;;;;6.82;2.60;;;21.40;87.80;;;;;;5050754;28;20508;-67
2022/07/29 11:47:36;;;;;;;8.88;3.10;;;21.40;88.40;;;;;;5051445;28;20102;-66
2022/07/29 11:50:05;;;;;;;9.25;3.58;;;21.50;90.20;;;;;;5051141;28;20021;-66
2022/07/29 11:52:42;;;;;;;9.38;3.83;;;21.50;90.30;;;;;;5051292;28;20035;-67
2022/07/29 11:55:14;;;;;;;8.20;3.17;;;21.50;90.10;;;;;;5051435;28;20036;-66
2022/07/29 11:57:52;;;;;;;10.80;3.97;;;21.60;89.80;;;;;;5051165;28;20032;-66
2022/07/29 12:00:39;;;;;;;10.63;4.07;;;21.60;90.60;;;;;;5051043;28;20393;-66
2022/07/29 12:03:10;;;;;;;8.98;4.35;;;21.60;91.50;;;;;;5051211;28;20029;-66
2022/07/29 12:05:42;;;;;;;10.55;4.30;;;21.70;90.90;;;;;;5051273;28;20063;-66
2022/07/29 12:08:25;;;;;;;11.13;3.90;;;21.70;91.40;;;;;;5051381;28;20021;-66
2022/07/29 12:10:52;;;;;;;8.20;2.92;;;21.70;90.90;;;;;;5051183;28;20656;-67
2022/07/29 12:13:21;;;;;;;6.40;2.83;;;21.70;89.40;;;;;;5051463;28;20033;-67
2022/07/29 12:15:56;;;;;;;9.68;3.90;;;21.70;89.10;;;;;;5051196;28;20025;-67
2022/07/29 12:18:23;;;;;;;9.23;3.60;;;21.80;90.90;;;;;;5051126;28;20033;-67
2022/07/29 12:20:56;;;;;;;11.60;3.92;;;21.80;91.30;;;;;;5050903;28;20060;-67
2022/07/29 12:23:22;;;;;;;14.98;4.53;;;21.70;91.10;;;;;;5051050;28;20056;-66
2022/07/29 12:25:48;;;;;;;12.40;4.28;;;21.70;91.20;;;;;;5065010;22;20045;-71
2022/07/29 12:28:18;;;;;;;10.48;4.30;;;21.70;91.30;;;;;;5050948;28;20013;-70
2022/07/29 12:30:51;;;;;;;10.65;4.68;;;21.70;91.10;;;;;;5031337;28;20175;-70
2022/07/29 12:33:23;;;;;;;11.93;4.45;;;21.60;91.20;;;;;;5031205;28;20191;-70
2022/07/29 12:35:51;;;;;;;8.95;3.75;;;21.60;91.10;;;;;;5031154;28;20034;-70
2022/07/29 12:38:18;;;;;;;10.55;3.30;;;21.60;91.20;;;;;;5029705;28;20026;-71
2022/07/29 12:40:46;;;;;;;6.63;3.05;;;21.60;90.70;;;;;;5030853;28;20034;-70
2022/07/29 12:43:15;;;;;;;8.52;3.47;;;21.60;90.50;;;;;;5031084;28;20044;-70
2022/07/29 12:45:43;;;;;;;7.97;3.47;;;21.60;90.60;;;;;;5030833;28;20017;-70
2022/07/29 12:48:10;;;;;;;6.30;3.20;;;21.70;90.60;;;;;;5031140;28;20029;-70
2022/07/29 12:50:51;;;;;;;10.38;4.03;;;21.70;90.40;;;;;;5030806;28;20025;-71
2022/07/29 12:53:16;;;;;;;6.75;3.13;;;21.70;90.60;;;;;;5030672;28;20375;-71
2022/07/29 12:55:51;;;;;;;6.80;2.92;;;21.80;90.30;;;;;;5030466;28;20095;-70
2022/07/29 12:58:29;;;;;;;6.50;3.08;;;21.80;90.10;;;;;;5033646;28;20033;-70
2022/07/29 13:01:15;;;;;;;7.05;2.55;;;21.80;90.00;;;;;;5033131;28;20041;-71
2022/07/29 13:03:59;;;;;;;8.55;3.40;;;21.80;90.30;;;;;;5033038;28;20508;-71